Time;durP1;ratioP1;P1;durP2;ratioP2;P2;SDS_P1;SDS_P2;PMS_P1;PMS_P2;Temp;Humidity;BMP_temperature;BMP_pressure;BME280_temperature;BME280_humidity;BME280_pressure;Samples;Min_cycle;Max_cycle;Signal;HPM_P1;HPM_P2
2022/12/17 13:07:25;;;;;;;6.57;4.50;;;5.10;99.90;;;;;;4111994;28;20395;-66
2022/12/17 13:09:32;;;;;;;7.17;4.37;;;5.10;99.90;;;;;;4095550;29;21101;-65
2022/12/17 13:11:37;;;;;;;6.27;4.17;;;5.10;99.90;;;;;;4078901;29;20091;-61
2022/12/17 13:13:54;;;;;;;6.30;3.83;;;5.10;99.90;;;;;;4095878;28;20091;-63
2022/12/17 13:16:01;;;;;;;16.17;12.43;;;5.10;99.90;;;;;;4112188;28;20094;-62
2022/12/17 13:18:19;;;;;;;6.73;5.23;;;5.20;99.90;;;;;;4110527;28;20484;-66
2022/12/17 13:20:23;;;;;;;6.43;4.67;;;5.20;99.90;;;;;;4112276;28;20085;-63
2022/12/17 13:22:29;;;;;;;5.63;4.13;;;5.20;99.90;;;;;;4110403;28;20043;-62
2022/12/17 13:24:30;;;;;;;10.43;7.50;;;5.20;99.90;;;;;;4111986;28;20046;-64
2022/12/17 13:26:49;;;;;;;6.83;4.60;;;5.20;99.90;;;;;;4110287;28;20053;-61
2022/12/17 13:29:00;;;;;;;5.63;4.23;;;5.20;99.90;;;;;;4111948;28;20046;-69
2022/12/17 13:31:12;;;;;;;4.93;3.85;;;5.10;99.90;;;;;;4110785;28;20695;-63
2022/12/17 13:33:19;;;;;;;6.43;3.83;;;5.10;99.90;;;;;;4111435;28;20105;-62
2022/12/17 13:35:42;;;;;;;5.30;3.87;;;5.10;99.90;;;;;;4082270;28;20036;-60
2022/12/17 13:37:50;;;;;;;7.83;5.27;;;5.10;99.90;;;;;;4096423;29;20078;-62
2022/12/17 13:40:15;;;;;;;3.60;3.20;;;5.10;99.90;;;;;;4100324;28;20308;-61
2022/12/17 13:42:31;;;;;;;5.60;3.10;;;5.00;99.90;;;;;;4111943;28;20039;-65
2022/12/17 13:44:42;;;;;;;5.27;3.10;;;5.00;99.90;;;;;;4110726;28;20043;-61
2022/12/17 13:46:46;;;;;;;6.93;3.57;;;5.00;99.90;;;;;;4111076;28;20264;-66
2022/12/17 13:49:00;;;;;;;5.37;3.10;;;5.00;99.90;;;;;;4094119;29;20786;-61
2022/12/17 13:51:04;;;;;;;5.27;3.40;;;5.00;99.90;;;;;;4112737;28;20023;-64
2022/12/17 13:53:11;;;;;;;5.73;4.30;;;4.90;99.90;;;;;;4114390;28;20035;-59
2022/12/17 13:55:25;;;;;;;5.33;3.33;;;4.90;99.90;;;;;;4114259;28;20047;-61
2022/12/17 13:57:26;;;;;;;6.33;4.33;;;4.90;99.90;;;;;;4114575;28;20081;-60
2022/12/17 13:59:28;;;;;;;4.97;3.73;;;4.90;99.90;;;;;;4114102;28;20765;-61
2022/12/17 14:01:30;;;;;;;6.87;4.33;;;4.90;99.90;;;;;;4114087;28;20035;-61
2022/12/17 14:03:32;;;;;;;6.93;4.10;;;4.90;99.90;;;;;;4114795;28;20328;-62
2022/12/17 14:05:37;;;;;;;8.10;4.10;;;4.80;99.90;;;;;;4113902;28;20331;-59
2022/12/17 14:07:39;;;;;;;6.73;4.30;;;4.80;99.90;;;;;;4114819;28;20463;-60
2022/12/17 14:09:43;;;;;;;6.03;4.50;;;4.70;99.90;;;;;;4113812;28;20023;-60
2022/12/17 14:14:15;;;;;;;6.95;4.72;;;4.70;99.90;;;;;;4113198;28;20289;-60
2022/12/17 14:16:17;;;;;;;8.77;5.17;;;4.60;99.90;;;;;;4115005;28;20373;-61
2022/12/17 14:18:20;;;;;;;8.90;5.63;;;4.60;99.90;;;;;;4113692;28;20809;-62
2022/12/17 14:20:24;;;;;;;9.50;6.30;;;4.50;99.90;;;;;;4114477;28;20093;-64
2022/12/17 14:22:37;;;;;;;13.97;7.93;;;4.50;99.90;;;;;;4113366;28;20381;-60
2022/12/17 14:24:38;;;;;;;8.77;5.90;;;4.40;99.90;;;;;;4114183;28;20284;-60
2022/12/17 14:26:58;;;;;;;12.47;7.33;;;4.40;99.90;;;;;;4113660;28;20042;-61
2022/12/17 14:28:59;;;;;;;12.90;7.93;;;4.30;99.90;;;;;;4113883;28;20277;-60
2022/12/17 14:31:27;;;;;;;12.70;8.00;;;4.30;99.90;;;;;;4113814;28;20030;-58
2022/12/17 14:33:33;;;;;;;15.20;9.37;;;4.40;99.90;;;;;;4113896;28;20331;-61
2022/12/17 14:35:38;;;;;;;14.63;9.77;;;4.40;99.90;;;;;;4112534;28;20313;-61
2022/12/17 14:37:39;;;;;;;12.97;7.37;;;4.40;99.90;;;;;;4113723;28;20261;-64
2022/12/17 14:39:43;;;;;;;13.37;8.13;;;4.30;99.90;;;;;;4112551;28;20367;-60
2022/12/17 14:44:05;;;;;;;11.57;7.90;;;4.30;99.90;;;;;;4097119;29;20670;-60
2022/12/17 14:46:20;;;;;;;12.13;7.70;;;4.20;99.90;;;;;;4099521;28;20344;-61
2022/12/17 14:48:59;;;;;;;11.53;7.80;;;4.20;99.90;;;;;;4097399;29;20285;-59
2022/12/17 14:50:55;;;;;;;15.60;7.17;;;4.20;99.90;;;;;;4098166;29;20690;-60
2022/12/17 14:52:58;;;;;;;10.83;7.10;;;4.10;99.90;;;;;;4097499;29;20292;-58
2022/12/17 14:54:59;;;;;;;17.20;10.00;;;4.10;99.90;;;;;;4097904;29;20945;-56
2022/12/17 14:57:04;;;;;;;15.40;9.53;;;4.10;99.90;;;;;;4097160;29;20347;-57
2022/12/17 14:59:23;;;;;;;13.53;7.33;;;4.10;99.90;;;;;;4108332;28;20285;-61
2022/12/17 15:01:25;;;;;;;10.90;6.10;;;4.10;99.90;;;;;;4095454;29;20277;-61
2022/12/17 15:03:28;;;;;;;29.73;15.40;;;4.00;99.90;;;;;;4112736;28;21038;-60
2022/12/17 15:05:30;;;;;;;16.73;10.30;;;4.00;99.90;;;;;;4112659;28;20281;-61
2022/12/17 15:07:32;;;;;;;15.27;9.27;;;4.00;99.90;;;;;;4110006;28;20281;-59
2022/12/17 15:09:36;;;;;;;18.63;10.80;;;4.00;99.90;;;;;;4112620;28;20326;-61
2022/12/17 15:11:38;;;;;;;16.27;9.27;;;4.00;99.90;;;;;;4114091;28;20269;-69
2022/12/17 15:13:40;;;;;;;15.97;9.43;;;3.90;99.90;;;;;;4111668;28;20277;-61
2022/12/17 15:15:41;;;;;;;11.60;7.33;;;3.90;99.90;;;;;;4112824;28;20276;-64
2022/12/17 15:17:42;;;;;;;15.30;10.17;;;3.80;99.90;;;;;;4113133;28;20273;-63
2022/12/17 15:19:44;;;;;;;15.37;10.03;;;3.80;99.90;;;;;;4111744;28;20339;-62
2022/12/17 15:21:45;;;;;;;11.70;7.03;;;3.80;99.90;;;;;;4112102;28;20626;-61
2022/12/17 15:23:47;;;;;;;13.00;8.30;;;3.70;99.90;;;;;;4113373;28;20737;-62
2022/12/17 15:25:50;;;;;;;13.03;6.77;;;3.70;99.90;;;;;;4113876;28;20320;-63
2022/12/17 15:27:51;;;;;;;12.47;8.63;;;3.70;99.90;;;;;;4112582;28;20269;-60
2022/12/17 15:29:52;;;;;;;14.80;7.47;;;3.60;99.90;;;;;;4113655;28;20268;-63
2022/12/17 15:31:53;;;;;;;11.83;6.90;;;3.60;99.90;;;;;;4112064;28;20677;-63
2022/12/17 15:33:54;;;;;;;12.73;7.73;;;3.60;99.90;;;;;;4112674;28;20689;-61
2022/12/17 15:35:57;;;;;;;11.97;7.67;;;3.50;99.90;;;;;;4111904;28;20339;-61
2022/12/17 15:37:59;;;;;;;10.30;7.70;;;3.60;99.90;;;;;;4112020;28;20768;-66
2022/12/17 15:40:00;;;;;;;11.37;6.80;;;3.50;99.90;;;;;;4108912;28;20344;-64
2022/12/17 15:44:20;;;;;;;10.63;5.80;;;3.60;99.90;;;;;;4104855;28;20770;-61
2022/12/17 15:46:22;;;;;;;11.20;6.50;;;3.50;99.90;;;;;;4111859;28;20335;-60
2022/12/17 15:48:23;;;;;;;7.83;5.93;;;3.60;99.90;;;;;;4110523;28;20299;-61
2022/12/17 15:50:24;;;;;;;11.10;6.67;;;3.60;99.90;;;;;;4113046;28;20331;-62
2022/12/17 15:52:25;;;;;;;13.47;8.77;;;3.50;99.90;;;;;;4109273;28;20363;-62
2022/12/17 15:54:26;;;;;;;11.10;7.50;;;3.50;99.90;;;;;;4113087;28;20268;-61
2022/12/17 15:56:28;;;;;;;15.50;9.80;;;3.50;99.90;;;;;;4112757;28;20323;-60
2022/12/17 15:58:29;;;;;;;17.20;10.83;;;3.40;99.90;;;;;;4111879;28;20277;-60
2022/12/17 16:00:31;;;;;;;17.43;10.23;;;3.50;99.90;;;;;;4112051;28;20347;-60
2022/12/17 16:02:32;;;;;;;12.93;7.80;;;3.50;99.90;;;;;;4110758;28;20293;-60
2022/12/17 16:04:33;;;;;;;28.03;14.27;;;3.50;99.90;;;;;;4112358;28;20281;-60
2022/12/17 16:06:36;;;;;;;19.10;10.77;;;3.40;99.90;;;;;;4111173;28;20280;-63
2022/12/17 16:08:38;;;;;;;13.00;6.50;;;3.40;99.90;;;;;;4112463;28;20272;-61
2022/12/17 16:10:39;;;;;;;17.53;10.87;;;3.40;99.90;;;;;;4112006;28;20335;-57
2022/12/17 16:12:41;;;;;;;20.33;11.10;;;3.40;99.90;;;;;;4112188;28;20285;-61
2022/12/17 16:14:42;;;;;;;17.13;10.00;;;3.40;99.90;;;;;;4096679;28;20269;-61
2022/12/17 16:16:43;;;;;;;18.07;9.47;;;3.40;99.90;;;;;;4097211;29;20316;-61
2022/12/17 16:18:44;;;;;;;18.13;10.07;;;3.40;99.90;;;;;;4095656;29;20391;-61
2022/12/17 16:20:45;;;;;;;12.47;7.80;;;3.40;99.90;;;;;;4096838;29;20293;-60
2022/12/17 16:22:47;;;;;;;18.87;8.73;;;3.40;99.90;;;;;;4095922;29;20316;-58
2022/12/17 16:24:48;;;;;;;15.70;8.60;;;3.30;99.90;;;;;;4097050;29;20274;-61
2022/12/17 16:26:49;;;;;;;16.30;9.03;;;3.30;99.90;;;;;;4109952;28;20327;-59
2022/12/17 16:28:50;;;;;;;15.83;8.10;;;3.30;99.90;;;;;;4111426;28;20784;-59
2022/12/17 16:30:57;;;;;;;14.47;8.23;;;3.30;99.90;;;;;;4111779;28;20343;-61
2022/12/17 16:32:58;;;;;;;14.70;8.77;;;3.30;99.90;;;;;;4111706;28;20273;-58
2022/12/17 16:34:59;;;;;;;16.00;9.10;;;3.30;99.90;;;;;;4111946;28;20840;-60
2022/12/17 16:37:00;;;;;;;16.00;8.67;;;3.30;99.90;;;;;;4111369;28;20273;-62
2022/12/17 16:39:03;;;;;;;15.70;8.03;;;3.20;99.90;;;;;;4112853;28;20268;-60
2022/12/17 16:41:04;;;;;;;15.10;8.40;;;3.10;99.90;;;;;;4111685;28;20292;-61
2022/12/17 16:43:05;;;;;;;18.47;9.10;;;3.10;99.90;;;;;;4111971;28;20304;-62
2022/12/17 16:45:07;;;;;;;18.33;10.97;;;3.10;99.90;;;;;;4111384;28;20758;-62
2022/12/17 16:47:09;;;;;;;21.57;12.33;;;3.10;99.90;;;;;;4112965;28;20277;-62
2022/12/17 16:49:15;;;;;;;21.20;11.60;;;3.10;99.90;;;;;;4111441;28;20334;-60
2022/12/17 16:51:18;;;;;;;22.20;13.43;;;3.00;99.90;;;;;;4112820;28;20332;-61
2022/12/17 16:53:19;;;;;;;21.07;12.40;;;3.00;99.90;;;;;;4110186;28;20285;-60
2022/12/17 16:55:20;;;;;;;22.17;12.63;;;3.00;99.90;;;;;;4112313;28;20284;-61
2022/12/17 16:57:21;;;;;;;20.17;9.87;;;3.10;99.90;;;;;;4110656;28;20267;-60
2022/12/17 16:59:23;;;;;;;19.53;10.40;;;3.10;99.90;;;;;;4110546;28;20281;-61
2022/12/17 17:01:27;;;;;;;20.23;10.60;;;3.10;99.90;;;;;;4111213;28;20273;-61
2022/12/17 17:03:28;;;;;;;25.10;11.87;;;3.10;99.90;;;;;;4110758;28;20292;-62
2022/12/17 17:05:38;;;;;;;14.83;8.20;;;3.20;99.90;;;;;;4111167;28;20297;-61
2022/12/17 17:07:39;;;;;;;13.70;8.77;;;3.00;99.90;;;;;;4111733;28;20269;-61
2022/12/17 17:09:40;;;;;;;16.00;8.80;;;3.00;99.90;;;;;;4112478;28;20646;-68
2022/12/17 17:11:41;;;;;;;12.83;7.93;;;2.90;99.90;;;;;;4111722;28;20308;-66
2022/12/17 17:13:43;;;;;;;19.43;9.40;;;2.90;99.90;;;;;;4112149;28;20336;-62
2022/12/17 17:15:44;;;;;;;13.87;7.37;;;3.00;99.90;;;;;;4111753;28;20343;-62
2022/12/17 17:17:46;;;;;;;17.13;7.53;;;2.90;99.90;;;;;;4112671;28;20261;-62
2022/12/17 17:19:47;;;;;;;14.67;7.17;;;2.90;99.90;;;;;;4111194;28;20293;-61
2022/12/17 17:21:51;;;;;;;13.13;7.03;;;2.80;99.90;;;;;;4113203;28;20276;-61
2022/12/17 17:23:58;;;;;;;13.90;7.60;;;2.80;99.90;;;;;;4111062;28;20272;-61
2022/12/17 17:26:00;;;;;;;16.10;7.97;;;2.70;99.90;;;;;;4112087;28;20280;-61
2022/12/17 17:28:01;;;;;;;13.47;7.53;;;2.70;99.90;;;;;;4098041;29;20332;-61
2022/12/17 17:30:03;;;;;;;11.93;7.63;;;2.70;99.90;;;;;;4104220;28;20273;-60
2022/12/17 17:32:04;;;;;;;15.40;8.60;;;2.70;99.90;;;;;;4114512;28;20657;-61
2022/12/17 17:34:13;;;;;;;13.83;7.50;;;2.60;99.90;;;;;;4115489;28;20642;-61
2022/12/17 17:36:23;;;;;;;14.27;7.90;;;2.60;99.90;;;;;;4096729;29;20274;-61
2022/12/17 17:38:24;;;;;;;18.80;8.57;;;2.60;99.90;;;;;;4115486;28;20812;-60
2022/12/17 17:40:25;;;;;;;15.93;8.77;;;2.60;99.90;;;;;;4114315;28;20047;-63
2022/12/17 17:42:26;;;;;;;14.43;8.20;;;2.50;99.90;;;;;;4114997;28;20273;-61
2022/12/17 17:44:27;;;;;;;15.63;8.43;;;2.50;99.90;;;;;;4114984;28;20300;-61
2022/12/17 17:46:29;;;;;;;15.27;8.30;;;2.40;99.90;;;;;;4113675;28;20689;-62
2022/12/17 17:48:32;;;;;;;17.23;8.77;;;2.40;99.90;;;;;;4115451;28;20332;-57
2022/12/17 17:50:33;;;;;;;15.80;7.83;;;2.40;99.90;;;;;;4114306;28;20761;-61
2022/12/17 17:52:34;;;;;;;15.47;8.83;;;2.40;99.90;;;;;;4114916;28;20328;-60
2022/12/17 17:54:35;;;;;;;20.00;9.80;;;2.40;99.90;;;;;;4112824;28;20398;-60
2022/12/17 17:56:38;;;;;;;13.80;7.97;;;2.30;99.90;;;;;;4114775;28;20273;-61
2022/12/17 17:58:41;;;;;;;16.40;8.60;;;2.40;99.90;;;;;;4113565;28;20300;-60
2022/12/17 18:00:42;;;;;;;19.63;10.27;;;2.40;99.90;;;;;;4110591;28;20480;-60
2022/12/17 18:02:43;;;;;;;17.83;8.23;;;2.40;99.90;;;;;;4113111;28;20303;-59
2022/12/17 18:04:44;;;;;;;15.80;8.97;;;2.30;99.90;;;;;;4114227;28;20284;-61
2022/12/17 18:06:47;;;;;;;20.87;10.50;;;2.40;99.90;;;;;;4113589;28;20662;-60
2022/12/17 18:08:49;;;;;;;22.40;9.97;;;2.30;99.90;;;;;;4114863;28;20816;-59
2022/12/17 18:11:00;;;;;;;16.37;9.03;;;2.40;99.90;;;;;;4113987;28;20280;-60
2022/12/17 18:15:21;;;;;;;15.80;9.20;;;2.40;99.90;;;;;;4113930;28;20300;-60
2022/12/17 18:17:22;;;;;;;13.57;8.10;;;2.20;99.90;;;;;;4114322;28;20761;-59
2022/12/17 18:19:23;;;;;;;18.97;9.27;;;2.20;99.90;;;;;;4113854;28;20265;-58
2022/12/17 18:21:26;;;;;;;19.27;8.53;;;2.20;99.90;;;;;;4113730;28;20773;-60
2022/12/17 18:23:27;;;;;;;18.10;8.97;;;2.20;99.90;;;;;;4115034;28;20253;-58
2022/12/17 18:25:28;;;;;;;18.03;9.33;;;2.10;99.90;;;;;;4114147;28;20332;-58
2022/12/17 18:27:30;;;;;;;18.53;9.40;;;2.10;99.90;;;;;;4114141;28;20343;-59
2022/12/17 18:29:31;;;;;;;20.63;10.60;;;2.10;99.90;;;;;;4111786;28;20273;-59
2022/12/17 18:31:32;;;;;;;21.30;9.77;;;2.10;99.90;;;;;;4114462;28;20368;-60
2022/12/17 18:33:34;;;;;;;19.50;10.57;;;2.10;99.90;;;;;;4112935;28;20397;-67
2022/12/17 18:35:35;;;;;;;20.43;9.80;;;2.10;99.90;;;;;;4114269;28;20297;-60
2022/12/17 18:37:36;;;;;;;14.53;8.07;;;2.10;99.90;;;;;;4112721;28;20800;-59
2022/12/17 18:39:37;;;;;;;16.97;9.43;;;2.10;99.90;;;;;;4114911;28;20276;-57
2022/12/17 18:44:02;;;;;;;27.65;13.85;;;2.00;99.90;;;;;;4114215;28;20343;-59
2022/12/17 18:46:03;;;;;;;26.40;12.83;;;2.00;99.90;;;;;;4112805;28;20964;-57
2022/12/17 18:48:05;;;;;;;34.47;18.17;;;1.90;99.90;;;;;;4114199;28;20276;-61
2022/12/17 18:50:06;;;;;;;41.47;19.77;;;2.00;99.90;;;;;;4112545;28;20277;-59
2022/12/17 18:52:07;;;;;;;34.33;18.03;;;2.00;99.90;;;;;;4114877;28;20649;-59
2022/12/17 18:54:12;;;;;;;29.07;16.53;;;2.10;99.90;;;;;;4113745;28;20281;-57
2022/12/17 18:56:13;;;;;;;31.23;15.60;;;2.00;99.90;;;;;;4113509;28;20347;-59
2022/12/17 18:58:14;;;;;;;29.70;15.23;;;1.80;99.90;;;;;;4113999;28;20323;-61
2022/12/17 19:00:16;;;;;;;36.40;15.53;;;1.60;99.90;;;;;;4113482;28;20300;-61
2022/12/17 19:02:17;;;;;;;28.37;14.70;;;1.50;99.90;;;;;;4112800;28;20745;-60
2022/12/17 19:04:19;;;;;;;29.30;14.47;;;1.40;99.90;;;;;;4113658;28;20304;-59
2022/12/17 19:06:22;;;;;;;27.20;12.87;;;1.30;99.90;;;;;;4113893;28;20311;-58
2022/12/17 19:08:23;;;;;;;30.77;13.67;;;1.20;99.90;;;;;;4112745;28;20351;-58
2022/12/17 19:10:24;;;;;;;31.23;15.63;;;1.10;99.90;;;;;;4114448;28;20335;-61
2022/12/17 19:12:26;;;;;;;28.37;14.33;;;1.10;99.90;;;;;;4113694;28;20331;-59
2022/12/17 19:14:27;;;;;;;31.93;14.33;;;1.10;99.90;;;;;;4114577;28;20280;-60
2022/12/17 19:16:28;;;;;;;38.83;17.57;;;1.00;99.90;;;;;;4112712;28;20348;-59
2022/12/17 19:18:29;;;;;;;28.37;14.40;;;1.00;99.90;;;;;;4113662;28;20688;-60
2022/12/17 19:20:31;;;;;;;28.83;13.97;;;1.00;99.90;;;;;;4112756;28;20344;-59
2022/12/17 19:22:32;;;;;;;33.83;15.03;;;0.90;99.90;;;;;;4114915;28;20737;-58
2022/12/17 19:24:36;;;;;;;29.97;15.03;;;0.90;99.90;;;;;;4113176;28;20268;-57
2022/12/17 19:26:37;;;;;;;30.93;14.67;;;0.90;99.90;;;;;;4113106;28;20289;-58
2022/12/17 19:28:40;;;;;;;33.40;16.00;;;0.90;99.90;;;;;;4112744;28;20809;-59
2022/12/17 19:30:41;;;;;;;28.53;14.80;;;1.00;99.90;;;;;;4112879;28;20289;-59
2022/12/17 19:32:42;;;;;;;30.17;14.93;;;1.00;99.90;;;;;;4113190;28;20729;-58
2022/12/17 19:34:43;;;;;;;33.13;15.80;;;0.90;99.90;;;;;;4113159;28;20922;-59
2022/12/17 19:36:45;;;;;;;28.90;14.13;;;0.90;99.90;;;;;;4113442;28;20327;-57
2022/12/17 19:38:51;;;;;;;30.53;14.57;;;0.90;99.90;;;;;;4112713;28;20269;-59
2022/12/17 19:40:52;;;;;;;31.07;15.87;;;0.80;99.90;;;;;;4113070;28;20288;-56
2022/12/17 19:42:56;;;;;;;31.23;17.20;;;0.80;99.90;;;;;;4112798;28;20351;-57
2022/12/17 19:44:57;;;;;;;29.03;15.07;;;0.80;99.90;;;;;;4113814;28;20288;-58
2022/12/17 19:46:59;;;;;;;31.03;15.67;;;0.80;99.90;;;;;;4111304;28;20281;-59
2022/12/17 19:49:00;;;;;;;31.00;14.63;;;0.80;99.90;;;;;;4111753;28;20288;-62
2022/12/17 19:51:03;;;;;;;33.17;15.17;;;0.80;99.90;;;;;;4111636;28;20293;-60
2022/12/17 19:53:04;;;;;;;32.77;16.00;;;0.80;99.90;;;;;;4113841;28;21115;-61
2022/12/17 19:55:05;;;;;;;30.07;14.00;;;0.80;99.90;;;;;;4112138;28;20281;-62
2022/12/17 19:57:06;;;;;;;33.33;15.57;;;0.80;99.90;;;;;;4113542;28;20253;-58
2022/12/17 19:59:10;;;;;;;33.30;14.37;;;0.80;99.90;;;;;;4111882;28;20315;-61
2022/12/17 20:01:17;;;;;;;30.13;14.37;;;0.80;99.90;;;;;;4112280;28;20379;-60
2022/12/17 20:03:18;;;;;;;31.00;14.80;;;0.80;99.90;;;;;;4111277;28;20253;-59
2022/12/17 20:05:19;;;;;;;32.63;14.73;;;0.80;99.90;;;;;;4117445;28;20272;-67
2022/12/17 20:07:20;;;;;;;28.23;14.03;;;0.80;99.90;;;;;;4118794;28;20320;-60
2022/12/17 20:09:22;;;;;;;32.87;14.80;;;0.80;99.90;;;;;;4112150;28;20281;-61
2022/12/17 20:11:32;;;;;;;35.27;15.97;;;0.80;99.90;;;;;;4111742;28;20281;-65
2022/12/17 20:13:33;;;;;;;30.65;13.60;;;0.80;99.90;;;;;;4111965;28;20277;-61
2022/12/17 20:15:34;;;;;;;29.07;13.77;;;0.70;99.90;;;;;;4112567;28;20570;-59
2022/12/17 20:17:35;;;;;;;33.80;15.13;;;0.60;99.90;;;;;;4112328;28;20277;-61
2022/12/17 20:19:37;;;;;;;30.17;15.30;;;0.60;99.90;;;;;;4113677;28;20269;-62
2022/12/17 20:21:39;;;;;;;36.33;17.17;;;0.60;99.90;;;;;;4112178;28;20289;-60
2022/12/17 20:23:40;;;;;;;37.00;16.00;;;0.50;99.90;;;;;;4113947;28;20323;-60
2022/12/17 20:25:41;;;;;;;36.60;16.27;;;0.50;99.90;;;;;;4111140;28;20280;-61
2022/12/17 20:27:43;;;;;;;31.67;14.27;;;0.50;99.90;;;;;;4113437;28;20311;-57
2022/12/17 20:29:44;;;;;;;34.03;15.77;;;0.50;99.90;;;;;;4112394;28;20260;-61
2022/12/17 20:31:49;;;;;;;36.40;15.73;;;0.40;99.90;;;;;;4112440;28;20622;-58
2022/12/17 20:33:50;;;;;;;31.07;15.27;;;0.30;99.90;;;;;;4111338;28;20327;-61
2022/12/17 20:35:52;;;;;;;33.97;16.13;;;0.30;99.90;;;;;;4113199;28;20312;-61
2022/12/17 20:37:53;;;;;;;35.57;15.70;;;0.20;99.90;;;;;;4112168;28;21036;-59
2022/12/17 20:39:54;;;;;;;33.37;17.73;;;0.20;99.90;;;;;;4112828;28;20320;-61
2022/12/17 20:41:56;;;;;;;36.67;17.23;;;0.20;99.90;;;;;;4112643;28;20785;-60
2022/12/17 20:44:00;;;;;;;31.17;16.90;;;0.20;99.90;;;;;;4112497;28;20344;-61
2022/12/17 20:46:02;;;;;;;34.57;14.43;;;0.20;99.90;;;;;;4112887;28;20315;-60
2022/12/17 20:48:03;;;;;;;32.13;16.37;;;0.10;99.90;;;;;;4112234;28;20654;-60
2022/12/17 20:50:04;;;;;;;33.53;15.63;;;0.10;99.90;;;;;;4111787;28;20281;-57
2022/12/17 20:52:06;;;;;;;35.13;16.03;;;0.10;99.90;;;;;;4111404;28;20773;-63
2022/12/17 20:54:08;;;;;;;31.50;15.30;;;0.10;99.90;;;;;;4111423;28;20694;-60
2022/12/17 20:56:12;;;;;;;35.33;16.80;;;0.10;99.90;;;;;;4111111;28;20273;-66
2022/12/17 20:58:14;;;;;;;35.10;15.60;;;0.20;99.90;;;;;;4112759;28;20265;-60
2022/12/17 21:00:17;;;;;;;32.03;15.17;;;0.20;99.90;;;;;;4112973;28;20320;-60
2022/12/17 21:02:18;;;;;;;33.50;15.70;;;0.20;99.90;;;;;;4116249;28;20327;-60
2022/12/17 21:04:19;;;;;;;39.00;17.47;;;0.20;99.90;;;;;;4114410;28;20331;-59
2022/12/17 21:06:24;;;;;;;34.03;15.27;;;0.20;99.90;;;;;;4115828;28;20288;-59
2022/12/17 21:08:25;;;;;;;33.00;15.13;;;0.30;99.90;;;;;;4115002;28;20749;-58
2022/12/17 21:10:26;;;;;;;36.13;15.57;;;0.30;99.90;;;;;;4115420;28;20339;-59
2022/12/17 21:13:27;;;;;;;39.10;17.77;;;0.30;99.90;;;;;;4114986;28;20257;-59
2022/12/17 21:14:48;;;;;;;;;;;0.30;99.90;;;;;;4116335;28;20335;-59
2022/12/17 21:16:49;;;;;;;36.77;16.10;;;0.30;99.90;;;;;;4114858;28;19906;-61
2022/12/17 21:18:55;;;;;;;36.63;14.07;;;0.30;99.90;;;;;;4115703;28;20042;-59
2022/12/17 21:21:05;;;;;;;36.00;15.00;;;0.30;99.90;;;;;;4114112;28;20297;-59
2022/12/17 21:23:06;;;;;;;37.47;15.57;;;0.30;99.90;;;;;;4115087;28;20361;-59
2022/12/17 21:25:08;;;;;;;36.10;16.30;;;0.30;99.90;;;;;;4114120;28;20026;-58
2022/12/17 21:27:09;;;;;;;37.67;14.77;;;0.30;99.90;;;;;;4114980;28;20269;-58
2022/12/17 21:29:11;;;;;;;37.53;14.33;;;0.30;99.90;;;;;;4114535;28;20293;-56
2022/12/17 21:31:24;;;;;;;33.67;14.87;;;0.30;99.90;;;;;;4113984;28;20280;-60
2022/12/17 21:33:25;;;;;;;32.97;15.83;;;0.20;99.90;;;;;;4115282;28;20268;-57
2022/12/17 21:35:26;;;;;;;37.90;16.07;;;0.20;99.90;;;;;;4114646;28;20269;-60
2022/12/17 21:37:28;;;;;;;36.43;15.60;;;0.20;99.90;;;;;;4115292;28;20756;-60
2022/12/17 21:39:29;;;;;;;35.63;16.43;;;0.30;99.90;;;;;;4114626;28;20281;-59
2022/12/17 21:41:33;;;;;;;31.27;15.73;;;0.20;99.90;;;;;;4114123;28;20300;-61
2022/12/17 21:43:35;;;;;;;33.20;14.77;;;0.20;99.90;;;;;;4114308;28;20269;-59
2022/12/17 21:45:39;;;;;;;29.57;15.10;;;0.20;99.90;;;;;;4115024;28;20351;-59
2022/12/17 21:47:40;;;;;;;35.90;15.17;;;0.20;99.90;;;;;;4113760;28;20828;-61
2022/12/17 21:49:42;;;;;;;40.77;17.47;;;0.20;99.90;;;;;;4115385;28;20319;-60
2022/12/17 21:51:43;;;;;;;35.70;16.23;;;0.20;99.90;;;;;;4113951;28;20327;-60
2022/12/17 21:53:44;;;;;;;51.53;21.37;;;0.20;99.90;;;;;;4116185;28;20273;-60
2022/12/17 21:55:45;;;;;;;45.43;19.53;;;0.30;99.90;;;;;;4113430;28;20273;-60
2022/12/17 21:57:47;;;;;;;48.07;21.27;;;0.30;99.90;;;;;;4113762;28;20332;-61
2022/12/17 21:59:48;;;;;;;58.23;26.93;;;0.30;99.90;;;;;;4113918;28;20269;-60
2022/12/17 22:01:50;;;;;;;44.43;21.53;;;0.30;99.90;;;;;;4114775;28;20288;-60
2022/12/17 22:03:53;;;;;;;38.13;17.70;;;0.40;99.90;;;;;;4115102;28;20272;-60
2022/12/17 22:05:54;;;;;;;84.67;33.77;;;0.40;99.90;;;;;;4114468;28;20760;-60
2022/12/17 22:07:55;;;;;;;53.27;24.70;;;0.40;99.90;;;;;;4114988;28;20336;-61
2022/12/17 22:09:56;;;;;;;56.47;23.23;;;0.40;99.90;;;;;;4114488;28;20272;-61
2022/12/17 22:14:19;;;;;;;40.97;19.33;;;0.40;99.90;;;;;;4114591;28;20327;-59
2022/12/17 22:16:21;;;;;;;42.37;18.10;;;0.30;99.90;;;;;;4115360;28;20315;-60
2022/12/17 22:18:22;;;;;;;40.87;18.43;;;0.30;99.90;;;;;;4113769;28;20669;-58
2022/12/17 22:20:23;;;;;;;44.03;20.93;;;0.30;99.90;;;;;;4114236;28;20347;-61
2022/12/17 22:22:24;;;;;;;57.30;24.57;;;0.30;99.90;;;;;;4113121;28;20300;-61
2022/12/17 22:24:25;;;;;;;49.47;20.97;;;0.30;99.90;;;;;;4115490;28;20753;-61
2022/12/17 22:26:27;;;;;;;42.10;21.07;;;0.30;99.90;;;;;;4114180;28;20277;-62
2022/12/17 22:28:28;;;;;;;45.20;19.93;;;0.30;99.90;;;;;;4115158;28;20273;-61
2022/12/17 22:32:58;;;;;;;35.10;16.40;;;0.30;99.90;;;;;;4114909;28;20708;-61
2022/12/17 22:34:59;;;;;;;38.88;18.55;;;0.30;99.90;;;;;;4114125;28;20327;-61
2022/12/17 22:37:00;;;;;;;42.07;17.57;;;0.30;99.90;;;;;;4114682;28;20054;-61
2022/12/17 22:39:04;;;;;;;37.67;17.07;;;0.30;99.90;;;;;;4114116;28;20745;-59
2022/12/17 22:41:06;;;;;;;39.23;16.40;;;0.30;99.90;;;;;;4097039;29;20286;-59
2022/12/17 22:43:28;;;;;;;41.00;19.53;;;0.30;99.90;;;;;;4114304;28;20269;-61
2022/12/17 22:45:30;;;;;;;35.20;15.30;;;0.20;99.90;;;;;;4114817;28;20335;-60
2022/12/17 22:47:31;;;;;;;36.27;16.53;;;0.20;99.90;;;;;;4113117;28;20327;-59
2022/12/17 22:49:32;;;;;;;41.83;15.97;;;0.20;99.90;;;;;;4113943;28;20272;-65
2022/12/17 22:51:33;;;;;;;33.80;15.90;;;0.20;99.90;;;;;;4114170;28;20308;-55
2022/12/17 22:53:34;;;;;;;38.87;16.60;;;0.20;99.90;;;;;;4114020;28;20268;-61
2022/12/17 22:55:36;;;;;;;40.13;17.73;;;0.20;99.90;;;;;;4114397;28;20265;-60
2022/12/17 22:57:37;;;;;;;32.83;15.13;;;0.20;99.90;;;;;;4113004;28;20591;-59
2022/12/17 22:59:38;;;;;;;29.23;12.67;;;0.20;99.90;;;;;;4113892;28;20385;-60
2022/12/17 23:01:39;;;;;;;32.97;15.07;;;0.20;99.90;;;;;;4113554;28;20363;-61
2022/12/17 23:03:40;;;;;;;34.47;13.97;;;0.10;99.90;;;;;;4113527;28;20315;-56
2022/12/17 23:05:41;;;;;;;31.07;13.30;;;0.10;99.90;;;;;;4112377;28;20769;-60
2022/12/17 23:07:43;;;;;;;30.33;14.83;;;0.10;99.90;;;;;;4113599;28;20329;-61
2022/12/17 23:09:44;;;;;;;32.67;15.20;;;0.00;99.90;;;;;;4112453;28;20281;-61
2022/12/17 23:11:46;;;;;;;34.60;15.10;;;0.00;99.90;;;;;;4113664;28;20280;-59
2022/12/17 23:13:48;;;;;;;37.53;15.03;;;0.00;99.90;;;;;;4113341;28;20851;-58
2022/12/17 23:15:50;;;;;;;31.50;15.07;;;0.00;99.90;;;;;;4113378;28;20288;-60
2022/12/17 23:17:53;;;;;;;36.53;15.90;;;0.00;99.90;;;;;;4112334;28;20729;-60
2022/12/17 23:19:54;;;;;;;33.13;15.20;;;0.00;99.90;;;;;;4113908;28;20729;-61
2022/12/17 23:21:55;;;;;;;30.50;14.73;;;-0.10;99.90;;;;;;4112045;28;20359;-60
2022/12/17 23:23:57;;;;;;;42.13;17.20;;;-0.10;99.90;;;;;;4112821;28;20269;-61
2022/12/17 23:26:04;;;;;;;32.67;15.50;;;-0.10;99.90;;;;;;4113299;28;20285;-60
2022/12/17 23:28:05;;;;;;;35.73;15.80;;;-0.10;99.90;;;;;;4112823;28;20277;-60
2022/12/17 23:30:10;;;;;;;35.20;16.00;;;-0.10;99.90;;;;;;4113354;28;20285;-60
2022/12/17 23:32:11;;;;;;;33.33;14.40;;;-0.10;99.90;;;;;;4112397;28;20277;-60
2022/12/17 23:34:12;;;;;;;38.77;15.77;;;-0.10;99.90;;;;;;4112629;28;20777;-60
2022/12/17 23:36:16;;;;;;;36.00;16.83;;;-0.10;99.90;;;;;;4111669;28;20310;-58
2022/12/17 23:38:17;;;;;;;35.90;15.70;;;-0.10;99.90;;;;;;4113868;28;20270;-60
2022/12/17 23:40:18;;;;;;;34.50;16.53;;;-0.10;99.90;;;;;;4112966;28;20712;-61
2022/12/17 23:42:19;;;;;;;36.60;16.27;;;-0.10;99.90;;;;;;4113842;28;20297;-57
2022/12/17 23:44:20;;;;;;;30.73;14.70;;;-0.10;99.90;;;;;;4112676;28;20595;-58
2022/12/17 23:46:22;;;;;;;34.33;15.77;;;-0.10;99.90;;;;;;4113753;28;20272;-60
2022/12/17 23:48:27;;;;;;;34.63;16.53;;;-0.10;99.90;;;;;;4112344;28;20737;-61
2022/12/17 23:50:28;;;;;;;31.43;14.23;;;-0.10;99.90;;;;;;4112903;28;20257;-60
2022/12/17 23:52:30;;;;;;;36.47;15.53;;;-0.10;99.90;;;;;;4111923;28;20276;-60
2022/12/17 23:54:31;;;;;;;31.93;14.90;;;-0.10;99.90;;;;;;4113372;28;20276;-60
2022/12/17 23:56:32;;;;;;;34.10;15.93;;;-0.10;99.90;;;;;;4112457;28;20821;-60
2022/12/17 23:58:35;;;;;;;32.13;14.13;;;-0.10;99.90;;;;;;4095661;29;20285;-60
